createdAt,value
2023-02-23T00:01:55.213Z,16.80
2023-02-23T00:04:24.661Z,16.30
2023-02-23T00:06:53.702Z,16.02
2023-02-23T00:09:24.481Z,15.82
2023-02-23T00:11:55.848Z,15.68
2023-02-23T00:14:28.327Z,16.90
2023-02-23T00:16:56.619Z,16.48
2023-02-23T00:19:25.748Z,16.80
2023-02-23T00:21:54.750Z,16.50
2023-02-23T00:24:26.857Z,16.10
2023-02-23T00:26:56.466Z,17.60
2023-02-23T00:29:25.851Z,17.60
2023-02-23T00:31:56.097Z,16.63
2023-02-23T00:34:24.449Z,15.70
2023-02-23T00:36:54.364Z,16.20
2023-02-23T00:39:26.748Z,15.85
2023-02-23T00:41:56.809Z,16.27
2023-02-23T00:44:26.171Z,16.45
2023-02-23T00:46:54.638Z,15.77
2023-02-23T00:49:24.052Z,15.52
2023-02-23T00:51:53.003Z,15.70
2023-02-23T00:54:23.019Z,15.02
2023-02-23T00:56:51.691Z,16.83
2023-02-23T00:59:21.723Z,16.20
2023-02-23T01:01:50.335Z,16.17
2023-02-23T01:04:18.479Z,16.83
2023-02-23T01:06:46.658Z,15.30
2023-02-23T01:09:22.022Z,16.90
2023-02-23T01:11:50.258Z,16.38
2023-02-23T01:14:18.909Z,15.55
2023-02-23T01:16:48.444Z,16.50
2023-02-23T01:19:16.797Z,17.00
2023-02-23T01:21:45.327Z,15.65
2023-02-23T01:24:14.377Z,15.23
2023-02-23T01:26:44.880Z,16.05
2023-02-23T01:29:15.325Z,15.70
2023-02-23T01:31:45.318Z,16.15
2023-02-23T01:34:16.146Z,16.85
2023-02-23T01:36:45.940Z,16.42
2023-02-23T01:39:16.395Z,16.17
2023-02-23T01:41:44.978Z,16.60
2023-02-23T01:44:54.897Z,16.40
2023-02-23T01:47:23.363Z,16.55
2023-02-23T01:49:53.213Z,16.08
2023-02-23T01:52:21.578Z,16.30
2023-02-23T01:54:54.096Z,16.08
2023-02-23T01:57:24.984Z,16.95
2023-02-23T01:59:54.289Z,15.70
2023-02-23T02:02:33.279Z,16.05
2023-02-23T02:05:06.495Z,16.30
2023-02-23T02:07:36.229Z,17.52
2023-02-23T02:10:22.814Z,15.07
2023-02-23T02:12:53.714Z,16.25
2023-02-23T02:15:26.085Z,16.80
2023-02-23T02:18:09.168Z,15.48
2023-02-23T02:21:11.635Z,14.90
2023-02-23T02:26:29.539Z,15.18
2023-02-23T02:29:46.628Z,16.40
2023-02-23T02:32:49.631Z,14.63
2023-02-23T02:35:53.928Z,16.10
2023-02-23T02:38:37.663Z,15.40
2023-02-23T02:41:15.397Z,15.85
2023-02-23T02:43:51.040Z,15.60
2023-02-23T02:46:24.648Z,15.15
2023-02-23T02:48:59.578Z,15.43
2023-02-23T02:51:35.129Z,15.10
2023-02-23T02:54:11.277Z,14.50
2023-02-23T02:56:42.293Z,15.65
2023-02-23T02:59:32.170Z,15.32
2023-02-23T03:02:18.494Z,14.77
2023-02-23T03:05:04.009Z,14.82
2023-02-23T03:07:55.342Z,15.05
2023-02-23T03:10:52.099Z,16.45
2023-02-23T03:13:51.636Z,15.30
2023-02-23T03:16:49.026Z,15.30
2023-02-23T03:19:39.449Z,15.15
2023-02-23T03:22:40.142Z,15.73
2023-02-23T03:25:30.867Z,16.35
2023-02-23T03:28:27.751Z,15.15
2023-02-23T03:31:20.985Z,14.48
2023-02-23T03:34:15.009Z,15.70
2023-02-23T03:37:07.170Z,15.55
2023-02-23T03:39:59.216Z,15.25
2023-02-23T03:42:50.843Z,15.25
2023-02-23T03:45:41.145Z,15.15
2023-02-23T03:48:29.835Z,15.65
2023-02-23T03:51:20.312Z,15.15
2023-02-23T03:54:09.783Z,14.40
2023-02-23T03:56:59.863Z,14.95
2023-02-23T03:59:50.049Z,15.18
2023-02-23T04:02:39.196Z,15.00
2023-02-23T04:05:30.093Z,14.15
2023-02-23T04:08:19.291Z,15.40
2023-02-23T04:11:09.298Z,14.73
2023-02-23T04:13:39.598Z,16.38
2023-02-23T04:16:08.586Z,17.40
2023-02-23T04:18:39.793Z,17.52
2023-02-23T04:21:08.533Z,16.60
2023-02-23T04:23:40.614Z,16.77
2023-02-23T04:26:08.890Z,16.83
2023-02-23T04:28:37.112Z,17.40
2023-02-23T04:31:05.451Z,17.08
2023-02-23T04:33:33.661Z,17.05
2023-02-23T04:36:03.183Z,16.45
2023-02-23T04:38:31.473Z,17.33
2023-02-23T04:40:59.629Z,17.00
2023-02-23T04:43:27.842Z,17.00
2023-02-23T04:45:56.023Z,16.45
2023-02-23T04:48:25.190Z,17.95
2023-02-23T04:50:54.050Z,18.42
2023-02-23T04:53:23.608Z,17.02
2023-02-23T04:55:51.789Z,17.65
2023-02-23T04:58:19.942Z,16.92
2023-02-23T05:00:48.508Z,16.25
2023-02-23T05:03:17.481Z,15.48
2023-02-23T05:05:46.200Z,14.80
2023-02-23T05:08:14.360Z,17.02
2023-02-23T05:10:43.871Z,15.73
2023-02-23T05:13:12.025Z,15.82
2023-02-23T05:15:40.264Z,17.80
2023-02-23T05:18:08.460Z,16.95
2023-02-23T05:20:36.598Z,18.00
2023-02-23T05:23:05.250Z,16.48
2023-02-23T05:25:33.422Z,16.67
2023-02-23T05:28:03.812Z,17.05
2023-02-23T05:30:32.039Z,18.08
2023-02-23T05:33:00.208Z,17.05
2023-02-23T05:35:28.355Z,16.77
2023-02-23T05:37:56.998Z,17.23
2023-02-23T05:40:25.140Z,17.98
2023-02-23T05:42:53.284Z,17.08
2023-02-23T05:45:22.826Z,17.33
2023-02-23T05:47:52.002Z,17.27
2023-02-23T05:50:20.336Z,18.05
2023-02-23T05:52:48.590Z,18.20
2023-02-23T05:55:16.857Z,17.17
2023-02-23T05:57:45.576Z,18.23
2023-02-23T06:00:14.579Z,18.20
2023-02-23T06:02:44.173Z,17.60
2023-02-23T06:05:13.595Z,17.15
2023-02-23T06:07:41.726Z,18.23
2023-02-23T06:10:11.071Z,17.77
2023-02-23T06:12:39.281Z,16.42
2023-02-23T06:15:08.439Z,16.00
2023-02-23T06:17:36.897Z,17.67
2023-02-23T06:20:07.409Z,17.73
2023-02-23T06:22:35.766Z,18.95
2023-02-23T06:25:04.998Z,17.77
2023-02-23T06:27:33.177Z,16.73
2023-02-23T06:30:01.318Z,17.33
2023-02-23T06:32:29.507Z,18.15
2023-02-23T06:34:57.708Z,17.15
2023-02-23T06:37:27.324Z,18.92
2023-02-23T06:39:55.466Z,19.23
2023-02-23T06:42:23.594Z,17.90
2023-02-23T06:44:51.772Z,18.73
2023-02-23T06:47:19.983Z,17.92
2023-02-23T06:49:48.817Z,18.90
2023-02-23T06:52:17.028Z,18.88
2023-02-23T06:54:48.245Z,19.67
2023-02-23T06:57:16.543Z,19.67
2023-02-23T06:59:44.779Z,20.27
2023-02-23T07:02:14.567Z,18.88
2023-02-23T07:04:43.093Z,19.58
2023-02-23T07:07:12.659Z,20.45
2023-02-23T07:09:41.292Z,19.80
2023-02-23T07:12:11.302Z,21.27
2023-02-23T07:14:40.285Z,20.77
2023-02-23T07:17:10.021Z,20.33
2023-02-23T07:19:39.819Z,20.58
2023-02-23T07:22:07.990Z,21.15
2023-02-23T07:24:36.178Z,20.13
2023-02-23T07:27:04.506Z,22.17
2023-02-23T07:29:34.068Z,20.55
2023-02-23T07:32:02.404Z,21.25
2023-02-23T07:34:30.715Z,22.58
2023-02-23T07:36:58.894Z,23.52
2023-02-23T07:39:27.200Z,24.13
2023-02-23T07:41:55.424Z,21.38
2023-02-23T07:44:23.734Z,24.70
2023-02-23T07:46:53.883Z,22.65
2023-02-23T07:49:22.103Z,22.73
2023-02-23T07:51:50.238Z,22.42
2023-02-23T07:54:18.526Z,21.65
2023-02-23T07:56:46.718Z,21.98
2023-02-23T07:59:15.376Z,23.98
2023-02-23T08:01:43.552Z,24.67
2023-02-23T08:04:13.182Z,22.85
2023-02-23T08:06:41.359Z,24.58
2023-02-23T08:09:10.698Z,24.00
2023-02-23T08:11:39.535Z,22.17
2023-02-23T08:14:07.724Z,24.65
2023-02-23T08:16:35.909Z,24.63
2023-02-23T08:19:04.117Z,23.73
2023-02-23T08:21:33.644Z,24.20
2023-02-23T08:24:01.795Z,25.00
2023-02-23T08:26:29.967Z,22.48
2023-02-23T08:29:00.578Z,22.08
2023-02-23T08:31:28.845Z,24.20
2023-02-23T08:33:57.252Z,23.98
2023-02-23T08:36:25.496Z,24.23
2023-02-23T08:38:55.336Z,26.67
2023-02-23T08:41:23.633Z,24.00
2023-02-23T08:43:51.782Z,26.00
2023-02-23T08:46:20.656Z,26.15
2023-02-23T08:48:48.869Z,27.38
2023-02-23T08:51:17.337Z,24.00
2023-02-23T08:53:45.568Z,24.50
2023-02-23T08:56:15.828Z,24.98
2023-02-23T08:58:44.253Z,26.40
2023-02-23T09:01:19.504Z,25.00
2023-02-23T09:03:47.869Z,22.83
2023-02-23T09:06:20.641Z,24.73
2023-02-23T09:08:48.927Z,25.73
2023-02-23T09:11:21.491Z,24.00
2023-02-23T09:13:49.926Z,22.95
2023-02-23T09:16:18.658Z,25.75
2023-02-23T09:18:46.985Z,26.38
2023-02-23T09:21:19.254Z,24.85
2023-02-23T09:23:48.281Z,24.95
2023-02-23T09:26:17.875Z,22.63
2023-02-23T09:28:47.787Z,24.70
2023-02-23T09:31:18.306Z,25.13
2023-02-23T09:33:46.808Z,24.33
2023-02-23T09:36:16.622Z,23.23
2023-02-23T09:38:45.654Z,24.05
2023-02-23T09:41:51.567Z,23.92
2023-02-23T09:44:34.900Z,25.23
2023-02-23T09:47:16.355Z,25.70
2023-02-23T09:49:46.824Z,25.45
2023-02-23T09:52:20.080Z,24.10
2023-02-23T09:54:48.734Z,24.98
2023-02-23T09:57:20.610Z,24.80
2023-02-23T09:59:50.189Z,24.40
2023-02-23T10:02:25.102Z,25.92
2023-02-23T10:04:57.669Z,25.40
2023-02-23T10:07:35.793Z,27.05
2023-02-23T10:10:21.653Z,24.50
2023-02-23T10:12:58.725Z,25.10
2023-02-23T10:15:37.246Z,40.47
2023-02-23T10:18:15.917Z,33.80
2023-02-23T10:20:52.019Z,28.67
2023-02-23T10:23:31.276Z,25.10
2023-02-23T10:26:02.044Z,22.70
2023-02-23T10:28:35.295Z,20.90
2023-02-23T10:31:26.068Z,21.33
2023-02-23T10:33:56.908Z,21.85
2023-02-23T10:36:35.933Z,21.67
2023-02-23T10:39:08.165Z,20.08
2023-02-23T10:41:37.201Z,19.58
2023-02-23T10:44:16.797Z,20.63
2023-02-23T10:46:49.367Z,20.25
2023-02-23T10:49:22.605Z,19.95
2023-02-23T10:51:52.208Z,18.13
2023-02-23T10:54:44.045Z,17.90
2023-02-23T10:57:16.428Z,16.52
2023-02-23T11:00:07.445Z,15.02
2023-02-23T11:02:37.702Z,16.88
2023-02-23T11:05:07.696Z,15.32
2023-02-23T11:07:35.965Z,14.90
2023-02-23T11:10:26.149Z,12.98
2023-02-23T11:12:54.515Z,11.27
2023-02-23T11:15:46.423Z,10.63
2023-02-23T11:18:26.225Z,10.65
2023-02-23T11:20:54.830Z,9.45
2023-02-23T11:23:29.285Z,9.68
2023-02-23T11:26:03.867Z,9.45
2023-02-23T11:28:34.714Z,9.93
2023-02-23T11:31:05.461Z,8.95
2023-02-23T11:33:37.735Z,9.73
2023-02-23T11:36:26.628Z,9.63
2023-02-23T11:39:05.073Z,8.70
2023-02-23T11:41:35.441Z,10.35
2023-02-23T11:44:06.223Z,12.43
2023-02-23T11:46:39.753Z,10.40
2023-02-23T11:49:15.886Z,9.98
2023-02-23T11:51:50.200Z,10.70
2023-02-23T11:54:23.813Z,10.68
2023-02-23T11:56:55.245Z,9.73
2023-02-23T11:59:30.972Z,11.60
2023-02-23T12:02:07.515Z,11.32
2023-02-23T12:04:40.807Z,9.52
2023-02-23T12:07:42.715Z,9.85
2023-02-23T12:10:22.867Z,8.05
2023-02-23T12:13:07.434Z,9.40
2023-02-23T12:15:45.231Z,9.15
2023-02-23T12:18:26.844Z,9.30
2023-02-23T12:21:00.818Z,9.50
2023-02-23T12:23:34.885Z,8.18
2023-02-23T12:26:09.488Z,8.57
2023-02-23T12:28:40.112Z,8.75
2023-02-23T12:31:18.726Z,8.38
2023-02-23T12:33:49.737Z,9.15
2023-02-23T12:36:29.906Z,10.43
2023-02-23T12:39:01.984Z,13.02
2023-02-23T12:41:37.307Z,13.05
2023-02-23T12:44:15.359Z,9.80
2023-02-23T12:46:49.449Z,13.70
2023-02-23T12:49:25.396Z,10.85
2023-02-23T12:52:02.189Z,11.35
2023-02-23T12:54:30.697Z,10.00
2023-02-23T12:57:07.019Z,10.55
2023-02-23T13:00:00.141Z,10.88
2023-02-23T13:02:34.567Z,13.20
2023-02-23T13:05:22.608Z,11.38
2023-02-23T13:08:12.949Z,9.82
2023-02-23T13:10:51.789Z,9.68
2023-02-23T13:13:36.986Z,10.23
2023-02-23T13:16:15.106Z,9.73
2023-02-23T13:18:48.516Z,9.50
2023-02-23T13:21:23.747Z,9.73
2023-02-23T13:24:01.542Z,8.85
2023-02-23T13:26:38.831Z,9.43
2023-02-23T13:29:27.117Z,9.57
2023-02-23T13:31:56.030Z,9.60
2023-02-23T13:34:29.065Z,21.95
2023-02-23T13:36:59.726Z,15.13
2023-02-23T13:39:50.156Z,11.68
2023-02-23T13:42:45.020Z,11.73
2023-02-23T13:45:29.486Z,10.05
2023-02-23T13:48:03.897Z,12.50
2023-02-23T13:50:40.397Z,10.60
2023-02-23T13:53:29.154Z,12.95
2023-02-23T13:56:04.141Z,12.68
2023-02-23T13:58:33.508Z,11.90
2023-02-23T14:01:15.472Z,10.80
2023-02-23T14:03:55.769Z,10.55
2023-02-23T14:06:27.038Z,12.35
2023-02-23T14:09:00.872Z,11.95
2023-02-23T14:11:44.546Z,10.98
2023-02-23T14:14:33.003Z,9.32
2023-02-23T14:17:41.654Z,10.07
2023-02-23T14:20:29.737Z,10.68
2023-02-23T14:23:31.108Z,11.65
2023-02-23T14:26:15.752Z,12.07
2023-02-23T14:28:49.166Z,10.85
2023-02-23T14:31:23.902Z,11.15
2023-02-23T14:34:00.372Z,9.80
2023-02-23T14:36:37.664Z,12.48
2023-02-23T14:39:11.337Z,16.67
2023-02-23T14:41:50.220Z,14.50
2023-02-23T14:44:31.382Z,13.23
2023-02-23T14:47:03.957Z,13.57
2023-02-23T14:49:36.875Z,12.70
2023-02-23T14:52:09.278Z,12.48
2023-02-23T14:54:39.276Z,13.98
2023-02-23T14:57:18.507Z,12.43
2023-02-23T14:59:58.768Z,12.15
2023-02-23T15:02:28.922Z,12.50
2023-02-23T15:04:57.748Z,11.68
2023-02-23T15:07:33.374Z,12.27
2023-02-23T15:10:04.031Z,12.10
2023-02-23T15:12:37.952Z,11.75
2023-02-23T15:15:17.058Z,13.02
2023-02-23T15:17:48.793Z,16.67
2023-02-23T15:20:19.534Z,13.60
2023-02-23T15:22:49.926Z,14.00
2023-02-23T15:25:21.029Z,12.27
2023-02-23T15:27:51.608Z,14.07
2023-02-23T15:30:25.101Z,13.70
2023-02-23T15:33:02.255Z,13.80
2023-02-23T15:35:31.468Z,13.48
2023-02-23T15:38:13.685Z,14.48
2023-02-23T15:40:47.059Z,14.43
2023-02-23T15:43:15.333Z,14.63
2023-02-23T15:45:50.504Z,15.30
2023-02-23T15:48:22.860Z,15.52
2023-02-23T15:50:54.887Z,16.58
2023-02-23T15:56:00.918Z,32.25
2023-02-23T16:01:06.031Z,22.73
2023-02-23T16:03:37.023Z,23.65
2023-02-23T16:06:08.659Z,17.15
2023-02-23T16:08:37.200Z,13.27
2023-02-23T16:11:11.969Z,12.65
2023-02-23T16:13:44.896Z,12.00
2023-02-23T16:16:19.477Z,13.07
2023-02-23T16:18:53.194Z,12.18
2023-02-23T16:21:25.345Z,12.00
2023-02-23T16:23:55.668Z,12.23
2023-02-23T16:26:28.892Z,12.82
2023-02-23T16:28:59.717Z,12.23
2023-02-23T16:31:43.486Z,12.27
2023-02-23T16:34:24.950Z,10.02
2023-02-23T16:36:57.779Z,9.23
2023-02-23T16:39:29.426Z,8.13
2023-02-23T16:41:58.876Z,9.30
2023-02-23T16:44:41.487Z,9.07
2023-02-23T16:47:36.336Z,8.65
2023-02-23T16:50:20.171Z,8.57
2023-02-23T16:52:53.577Z,8.25
2023-02-23T16:55:25.450Z,8.25
2023-02-23T16:57:56.379Z,8.57
2023-02-23T17:00:27.049Z,8.13
2023-02-23T17:02:57.423Z,21.58
2023-02-23T17:05:26.344Z,10.43
2023-02-23T17:07:55.317Z,9.77
2023-02-23T17:10:28.087Z,9.13
2023-02-23T17:12:57.850Z,9.90
2023-02-23T17:15:29.300Z,8.65
2023-02-23T17:17:58.995Z,8.65
2023-02-23T17:20:29.609Z,11.07
2023-02-23T17:22:59.396Z,11.85
2023-02-23T17:25:27.987Z,12.15
2023-02-23T17:27:57.184Z,12.23
2023-02-23T17:30:26.076Z,12.32
2023-02-23T17:32:56.732Z,12.50
2023-02-23T17:35:27.200Z,11.43
2023-02-23T17:37:55.897Z,11.77
2023-02-23T17:40:29.454Z,12.18
2023-02-23T17:42:59.303Z,10.77
2023-02-23T17:45:28.209Z,10.98
2023-02-23T17:47:57.190Z,10.07
2023-02-23T17:50:28.078Z,12.40
2023-02-23T17:52:56.811Z,11.63
2023-02-23T17:55:25.763Z,9.43
2023-02-23T17:57:53.951Z,9.35
2023-02-23T18:00:22.412Z,9.82
2023-02-23T18:02:50.603Z,10.68
2023-02-23T18:05:19.228Z,10.80
2023-02-23T18:07:48.988Z,11.30
2023-02-23T18:10:17.582Z,11.60
2023-02-23T18:12:45.888Z,11.57
2023-02-23T18:15:14.125Z,12.05
2023-02-23T18:17:42.298Z,11.80
2023-02-23T18:20:14.974Z,11.38
2023-02-23T18:22:43.614Z,12.48
2023-02-23T18:25:21.176Z,11.93
2023-02-23T18:27:54.061Z,12.20
2023-02-23T18:30:23.454Z,11.40
2023-02-23T18:32:52.549Z,13.73
2023-02-23T18:35:20.860Z,13.63
2023-02-23T18:37:49.681Z,13.85
2023-02-23T18:40:23.961Z,13.75
2023-02-23T18:42:52.523Z,13.23
2023-02-23T18:45:20.765Z,14.82
2023-02-23T18:47:48.919Z,15.40
2023-02-23T18:50:19.378Z,15.52
2023-02-23T18:52:50.744Z,15.65
2023-02-23T18:55:22.248Z,17.67
2023-02-23T18:57:50.825Z,17.40
2023-02-23T19:00:19.977Z,16.15
2023-02-23T19:02:48.825Z,18.55
2023-02-23T19:05:20.847Z,17.08
2023-02-23T19:07:49.797Z,18.30
2023-02-23T19:10:18.068Z,18.83
2023-02-23T19:12:47.606Z,18.15
2023-02-23T19:15:15.906Z,18.02
2023-02-23T19:17:46.348Z,18.20
2023-02-23T19:20:14.927Z,18.17
2023-02-23T19:22:43.594Z,15.98
2023-02-23T19:25:15.367Z,15.35
2023-02-23T19:27:44.183Z,17.23
2023-02-23T19:30:14.909Z,27.35
2023-02-23T19:32:43.887Z,25.05
2023-02-23T19:35:15.194Z,24.60
2023-02-23T19:37:48.758Z,22.20
2023-02-23T19:40:20.732Z,22.48
2023-02-23T19:45:20.113Z,20.30
2023-02-23T19:47:48.566Z,19.40
2023-02-23T19:50:18.931Z,21.23
2023-02-23T19:52:47.834Z,21.17
2023-02-23T19:55:16.562Z,22.50
2023-02-23T19:57:44.728Z,24.80
2023-02-23T20:00:14.543Z,24.27
2023-02-23T20:02:44.126Z,22.45
2023-02-23T20:05:14.225Z,23.48
2023-02-23T20:07:42.952Z,22.08
2023-02-23T20:10:14.005Z,22.42
2023-02-23T20:12:42.213Z,22.27
2023-02-23T20:15:11.308Z,21.25
2023-02-23T20:17:40.079Z,21.15
2023-02-23T20:20:12.273Z,20.13
2023-02-23T20:22:42.246Z,21.33
2023-02-23T20:25:15.987Z,22.15
2023-02-23T20:27:45.288Z,22.23
2023-02-23T20:30:15.100Z,21.38
2023-02-23T20:32:43.775Z,21.73
2023-02-23T20:35:14.362Z,21.58
2023-02-23T20:37:42.613Z,22.77
2023-02-23T20:40:17.028Z,19.73
2023-02-23T20:42:47.859Z,21.35
2023-02-23T20:45:17.957Z,21.02
2023-02-23T20:47:47.088Z,21.23
2023-02-23T20:50:16.892Z,21.17
2023-02-23T20:52:45.979Z,20.35
2023-02-23T20:55:19.357Z,20.08
2023-02-23T20:57:48.929Z,20.95
2023-02-23T21:00:24.188Z,21.25
2023-02-23T21:02:55.575Z,19.80
2023-02-23T21:05:27.001Z,18.92
2023-02-23T21:07:59.974Z,19.67
2023-02-23T21:10:31.707Z,19.27
2023-02-23T21:13:00.384Z,16.45
2023-02-23T21:15:29.099Z,18.23
2023-02-23T21:17:57.974Z,16.27
2023-02-23T21:20:28.600Z,17.23
2023-02-23T21:22:57.094Z,19.08
2023-02-23T21:25:27.465Z,18.05
2023-02-23T21:27:56.016Z,16.77
2023-02-23T21:30:28.629Z,17.13
2023-02-23T21:32:58.825Z,16.13
2023-02-23T21:35:28.664Z,17.02
2023-02-23T21:37:57.047Z,16.15
2023-02-23T21:40:25.297Z,14.68
2023-02-23T21:42:53.779Z,14.35
2023-02-23T21:45:22.032Z,16.17
2023-02-23T21:47:50.509Z,17.10
2023-02-23T21:50:20.475Z,16.85
2023-02-23T21:52:53.145Z,18.13
2023-02-23T21:55:22.115Z,15.95
2023-02-23T21:57:52.224Z,14.40
2023-02-23T22:00:21.710Z,17.33
2023-02-23T22:02:51.050Z,19.10
2023-02-23T22:05:20.517Z,19.15
2023-02-23T22:07:51.298Z,20.65
2023-02-23T22:10:21.440Z,20.02
2023-02-23T22:12:53.581Z,16.05
2023-02-23T22:15:27.140Z,17.40
2023-02-23T22:17:55.604Z,16.05
2023-02-23T22:20:24.032Z,15.43
2023-02-23T22:22:53.592Z,22.25
2023-02-23T22:25:21.836Z,19.25
2023-02-23T22:27:50.014Z,21.38
2023-02-23T22:30:20.588Z,18.30
2023-02-23T22:32:48.996Z,15.05
2023-02-23T22:35:17.413Z,15.77
2023-02-23T22:37:45.585Z,19.80
2023-02-23T22:40:16.697Z,22.55
2023-02-23T22:42:48.281Z,21.77
2023-02-23T22:45:17.407Z,18.85
2023-02-23T22:47:45.728Z,17.17
2023-02-23T22:50:18.105Z,19.17
2023-02-23T22:52:46.756Z,18.25
2023-02-23T22:55:16.425Z,14.65
2023-02-23T22:57:46.078Z,13.90
2023-02-23T23:00:19.334Z,13.95
2023-02-23T23:02:48.303Z,13.60
2023-02-23T23:05:17.705Z,12.60
2023-02-23T23:07:47.618Z,14.02
2023-02-23T23:10:17.855Z,13.63
2023-02-23T23:12:46.645Z,14.15
2023-02-23T23:15:17.311Z,13.40
2023-02-23T23:17:48.483Z,13.98
2023-02-23T23:20:18.904Z,14.18
2023-02-23T23:22:47.123Z,12.35
2023-02-23T23:25:22.669Z,12.40
2023-02-23T23:27:53.644Z,12.45
2023-02-23T23:30:26.011Z,12.57
2023-02-23T23:32:54.484Z,11.88
2023-02-23T23:35:23.040Z,11.93
2023-02-23T23:37:52.035Z,11.35
2023-02-23T23:40:24.516Z,10.95
2023-02-23T23:42:53.218Z,11.52
2023-02-23T23:45:24.296Z,11.55
2023-02-23T23:47:52.960Z,12.07
2023-02-23T23:50:26.683Z,11.57
2023-02-23T23:52:55.467Z,11.88
2023-02-23T23:55:25.005Z,11.45
2023-02-23T23:57:53.243Z,11.35
